Hlavní strana
METAR-TAF:

METAR-TAF

Letiště :

Dinwiddie County Airport

Petersburg, Virginie, Spojené státy americké

zeměpisná šířka: 37-11N, zeměpisná délka: 077-31W, výška: 59 m

Aktuální stav počasí

Zpráva byla vytvořena před 19 minutami, v 09:35 UTC
Bezvětří
Teplota 22°C
Vlhkost vzduchu 94%
Tlak 1018 hPa
Viditelnost: 16.1 km
Zataženo ve výšce 400 ft

METAR: KPTB 070935Z AUTO 00000KT 10SM OVC004 22/21 A3007 RMK AO2 T02160205

Čas: 05:54 (09:54 UTC)


TAF: chybějící

Stav a předpovědi počasí z více než 4 000 letišť (zprávy METAR a TAF).

Červené a žluté tečky na mapě představují dostupné meteorologické stanice.

Když kurzor umístíte na tečku, zobrazí se název stanice.

Pak kliknutím zobrazíte stav a předpověď počasí.

Chcete-li změnit mapu, kliknutím na zelené tlačítko se znaménkem +mapu přiblížíte, kliknutím na zelené tlačítko se znaménkem – mapu oddálíte a kliknutím na zelené šipky přejdete na sousední mapy.


METAR-TAF: